createdAt,value
2022-08-16T00:02:33.068Z,100328.78
2022-08-16T00:05:01.365Z,100282.47
2022-08-16T00:07:29.625Z,100348.75
2022-08-16T00:09:57.453Z,100338.97
2022-08-16T00:12:26.722Z,100350.47
2022-08-16T00:14:57.031Z,100333.09
2022-08-16T00:17:25.226Z,100374.47
2022-08-16T00:19:54.981Z,100421.06
2022-08-16T00:22:24.747Z,100441.09
2022-08-16T00:24:53.519Z,100477.75
2022-08-16T00:27:22.465Z,100430.03
2022-08-16T00:30:00.463Z,100354.72
2022-08-16T00:32:39.205Z,100320.44
2022-08-16T00:35:15.590Z,100341.44
2022-08-16T00:37:57.095Z,100326.59
2022-08-16T00:40:34.363Z,100312.47
2022-08-16T00:43:11.637Z,100395.03
2022-08-16T00:45:58.313Z,100394.25
2022-08-16T00:48:45.442Z,100443.94
2022-08-16T00:51:17.296Z,100438.13
2022-08-16T00:53:46.081Z,100455.13
2022-08-16T00:56:55.497Z,100445.81
2022-08-16T00:59:06.985Z,100455.38
2022-08-16T01:01:35.955Z,100399.81
2022-08-16T01:04:06.342Z,100464.91
2022-08-16T01:07:01.806Z,100384.84
2022-08-16T01:09:33.483Z,100409.50
2022-08-16T01:12:03.197Z,100323.56
2022-08-16T01:14:35.987Z,100399.38
2022-08-16T01:17:08.464Z,100454.75
2022-08-16T01:19:42.808Z,100375.34
2022-08-16T01:22:48.191Z,100337.16
2022-08-16T01:25:09.315Z,100413.44
2022-08-16T01:27:42.856Z,100457.06
2022-08-16T01:30:19.412Z,100445.25
2022-08-16T01:33:01.994Z,100440.84
2022-08-16T01:35:45.199Z,100421.47
2022-08-16T01:38:20.090Z,100451.63
2022-08-16T01:40:51.135Z,100559.94
2022-08-16T01:43:19.044Z,100620.75
2022-08-16T01:45:47.430Z,100547.38
2022-08-16T01:48:27.873Z,100490.22
2022-08-16T01:51:09.217Z,100358.47
2022-08-16T01:53:44.188Z,100441.16
2022-08-16T01:56:23.273Z,100411.34
2022-08-16T01:58:53.376Z,100439.75
2022-08-16T02:01:21.491Z,100544.81
2022-08-16T02:03:50.471Z,100562.81
2022-08-16T02:06:34.585Z,100489.22
2022-08-16T02:09:07.214Z,100419.63
2022-08-16T02:11:48.081Z,100386.00
2022-08-16T02:14:26.658Z,100357.53
2022-08-16T02:16:56.281Z,100325.16
2022-08-16T02:19:59.255Z,100299.91
2022-08-16T02:22:34.072Z,100215.84
2022-08-16T02:25:09.731Z,100282.75
2022-08-16T02:27:39.792Z,100345.06
2022-08-16T02:30:37.198Z,100479.31
2022-08-16T02:33:00.163Z,100433.59
2022-08-16T02:35:28.191Z,100427.41
2022-08-16T02:37:56.664Z,100293.94
2022-08-16T02:40:29.846Z,100293.91
2022-08-16T02:42:58.871Z,100411.22
2022-08-16T02:45:29.086Z,100462.28
2022-08-16T02:48:01.330Z,100443.84
2022-08-16T02:50:54.450Z,100376.22
2022-08-16T02:53:31.133Z,100347.72
2022-08-16T02:55:59.262Z,100341.66
2022-08-16T02:58:33.708Z,100321.22
2022-08-16T03:01:02.067Z,100309.81
2022-08-16T03:04:30.149Z,100279.31
2022-08-16T03:06:41.525Z,100367.47
2022-08-16T03:09:13.589Z,100354.94
2022-08-16T03:11:41.987Z,100545.66
2022-08-16T03:14:12.052Z,100464.28
2022-08-16T03:16:59.875Z,100450.09
2022-08-16T03:19:48.028Z,100336.50
2022-08-16T03:22:19.397Z,100307.91
2022-08-16T03:25:00.868Z,100385.47
2022-08-16T03:27:32.519Z,100318.13
2022-08-16T03:30:17.633Z,100261.13
2022-08-16T03:32:47.167Z,100276.97
2022-08-16T03:35:17.643Z,100273.25
2022-08-16T03:38:01.484Z,100256.84
2022-08-16T03:40:31.794Z,100279.00
2022-08-16T03:43:20.688Z,100295.34
2022-08-16T03:45:52.957Z,100304.47
2022-08-16T03:48:37.151Z,100272.00
2022-08-16T03:51:12.271Z,100257.28
2022-08-16T03:53:41.811Z,100294.16
2022-08-16T03:56:19.755Z,100259.03
2022-08-16T03:58:50.986Z,100273.56
2022-08-16T04:01:22.174Z,100295.47
2022-08-16T04:03:51.130Z,100291.56
2022-08-16T04:06:21.716Z,100262.41
2022-08-16T04:08:49.566Z,100255.28
2022-08-16T04:11:17.323Z,100251.59
2022-08-16T04:14:01.799Z,100233.91
2022-08-16T04:16:34.451Z,100232.88
2022-08-16T04:19:04.385Z,100290.00
2022-08-16T04:21:33.261Z,100266.56
2022-08-16T04:24:02.961Z,100234.75
2022-08-16T04:26:32.442Z,100230.50
2022-08-16T04:29:17.161Z,100232.66
2022-08-16T04:31:56.615Z,100243.50
2022-08-16T04:34:27.536Z,100246.16
2022-08-16T04:36:56.631Z,100247.72
2022-08-16T04:39:37.118Z,100271.53
2022-08-16T04:42:13.456Z,100232.66
2022-08-16T04:44:53.571Z,100338.19
2022-08-16T04:47:25.593Z,100277.03
2022-08-16T04:50:00.681Z,100262.78
2022-08-16T04:52:35.103Z,100318.69
2022-08-16T04:55:09.427Z,100297.03
2022-08-16T04:57:38.127Z,100398.56
2022-08-16T05:00:32.894Z,100392.81
2022-08-16T05:03:07.647Z,100359.72
2022-08-16T05:05:44.803Z,100295.69
2022-08-16T05:08:27.956Z,100299.94
2022-08-16T05:11:00.069Z,100261.59
2022-08-16T05:13:41.817Z,100299.88
2022-08-16T05:16:19.863Z,100318.00
2022-08-16T05:18:51.751Z,100414.38
2022-08-16T05:21:21.652Z,100487.06
2022-08-16T05:23:55.990Z,100513.13
2022-08-16T05:26:30.187Z,100360.34
2022-08-16T05:28:58.844Z,100269.22
2022-08-16T05:31:29.687Z,100246.06
2022-08-16T05:34:01.037Z,100249.84
2022-08-16T05:36:36.340Z,100196.28
2022-08-16T05:39:06.492Z,100237.34
2022-08-16T05:41:45.522Z,100304.44
2022-08-16T05:44:23.732Z,100388.41
2022-08-16T05:46:54.701Z,100355.00
2022-08-16T05:49:25.131Z,100302.25
2022-08-16T05:51:54.761Z,100320.22
2022-08-16T05:54:24.939Z,100324.13
2022-08-16T05:56:54.203Z,100282.81
2022-08-16T05:59:24.652Z,100252.66
2022-08-16T06:01:56.208Z,100267.13
2022-08-16T06:04:35.016Z,100116.50
2022-08-16T06:07:09.153Z,100212.41
2022-08-16T06:09:53.115Z,100012.28
2022-08-16T06:12:26.754Z,100207.44
2022-08-16T06:14:58.966Z,100112.34
2022-08-16T06:17:42.693Z,99936.69
2022-08-16T06:20:23.662Z,100175.00
2022-08-16T06:22:58.609Z,100188.31
2022-08-16T06:25:35.869Z,99897.00
2022-08-16T06:28:08.816Z,99969.53
2022-08-16T06:30:43.472Z,99903.56
2022-08-16T06:33:12.707Z,99961.63
2022-08-16T06:35:41.883Z,100100.88
2022-08-16T06:38:33.245Z,99839.78
2022-08-16T06:40:59.659Z,99900.94
2022-08-16T06:43:28.405Z,99796.78
2022-08-16T06:45:56.454Z,99757.47
2022-08-16T06:48:32.662Z,99703.06
2022-08-16T06:51:03.239Z,99854.50
2022-08-16T06:53:33.776Z,99866.00
2022-08-16T06:56:05.935Z,99860.50
2022-08-16T06:58:34.430Z,99908.75
2022-08-16T07:01:10.059Z,99710.25
2022-08-16T07:03:55.957Z,99718.31
2022-08-16T07:06:27.368Z,99664.09
2022-08-16T07:08:55.976Z,99688.28
2022-08-16T07:11:47.316Z,99756.03
2022-08-16T07:14:23.796Z,99635.66
2022-08-16T07:16:58.547Z,99733.22
2022-08-16T07:19:48.336Z,99719.03
2022-08-16T07:22:36.533Z,99716.41
2022-08-16T07:25:08.193Z,99772.50
2022-08-16T07:27:37.179Z,99649.16
2022-08-16T07:30:45.077Z,99636.25
2022-08-16T07:32:56.641Z,99584.56
2022-08-16T07:35:25.035Z,99612.97
2022-08-16T07:37:54.269Z,99653.91
2022-08-16T07:40:36.976Z,99733.41
2022-08-16T07:43:09.831Z,99568.88
2022-08-16T07:45:37.875Z,99713.00
2022-08-16T07:48:11.602Z,99666.56
2022-08-16T07:50:57.729Z,99732.97
2022-08-16T07:53:29.605Z,99648.69
2022-08-16T07:55:59.248Z,99651.72
2022-08-16T07:58:35.265Z,99561.25
2022-08-16T08:01:10.149Z,99505.31
2022-08-16T08:03:42.459Z,99565.16
2022-08-16T08:06:11.927Z,99623.63
2022-08-16T08:08:51.503Z,99584.81
2022-08-16T08:11:23.876Z,99701.47
2022-08-16T08:13:53.596Z,99597.94
2022-08-16T08:16:30.812Z,99654.38
2022-08-16T08:19:01.143Z,99672.63
2022-08-16T08:21:58.493Z,99623.72
2022-08-16T08:24:20.502Z,99671.88
2022-08-16T08:26:49.858Z,99613.00
2022-08-16T08:29:23.077Z,99532.97
2022-08-16T08:31:53.097Z,99582.78
2022-08-16T08:34:23.143Z,99619.25
2022-08-16T08:36:54.544Z,99636.44
2022-08-16T08:39:23.789Z,99741.91
2022-08-16T08:41:52.387Z,99646.28
2022-08-16T08:44:29.846Z,99626.22
2022-08-16T08:47:01.303Z,99640.31
2022-08-16T08:49:50.423Z,99643.34
2022-08-16T08:52:35.052Z,99608.75
2022-08-16T08:55:11.431Z,99717.69
2022-08-16T08:57:41.617Z,99706.50
2022-08-16T09:00:13.558Z,99750.00
2022-08-16T09:02:44.457Z,99688.31
2022-08-16T09:05:15.195Z,99715.75
2022-08-16T09:08:01.564Z,99689.97
2022-08-16T09:10:31.434Z,99660.38
2022-08-16T09:12:59.812Z,99709.50
2022-08-16T09:15:32.930Z,99737.38
2022-08-16T09:18:25.143Z,99741.13
2022-08-16T09:20:58.654Z,99748.66
2022-08-16T09:23:28.792Z,99703.19
2022-08-16T09:25:57.820Z,99693.66
2022-08-16T09:29:13.516Z,99686.78
2022-08-16T09:31:14.697Z,99721.63
2022-08-16T09:33:43.408Z,99657.63
2022-08-16T09:36:31.887Z,99718.97
2022-08-16T09:39:00.987Z,99726.31
2022-08-16T09:41:31.656Z,99696.69
2022-08-16T09:44:02.513Z,99628.63
2022-08-16T09:46:49.788Z,99620.91
2022-08-16T09:49:19.901Z,99680.66
2022-08-16T09:51:48.266Z,99665.47
2022-08-16T09:54:17.485Z,99705.28
2022-08-16T09:56:53.408Z,99684.88
2022-08-16T09:59:22.581Z,99751.88
2022-08-16T10:01:51.677Z,99764.97
2022-08-16T10:04:29.715Z,99644.91
2022-08-16T10:07:14.896Z,99678.53
2022-08-16T10:09:53.621Z,99681.88
2022-08-16T10:12:44.245Z,99657.59
2022-08-16T10:15:15.684Z,99663.84
2022-08-16T10:18:01.682Z,99680.06
2022-08-16T10:20:31.553Z,99593.84
2022-08-16T10:23:06.071Z,99610.97
2022-08-16T10:27:17.249Z,99584.47
2022-08-16T10:28:28.709Z,99579.72
2022-08-16T10:30:59.150Z,99628.44
2022-08-16T10:33:29.284Z,99600.44
2022-08-16T10:36:03.299Z,99598.81
2022-08-16T10:38:32.927Z,99600.75
2022-08-16T10:41:01.524Z,99622.47
2022-08-16T10:43:31.271Z,99650.16
2022-08-16T10:46:01.151Z,99621.00
2022-08-16T10:48:29.533Z,99631.16
2022-08-16T10:50:59.693Z,99586.13
2022-08-16T10:53:32.959Z,99659.41
2022-08-16T10:56:03.317Z,99646.66
2022-08-16T10:58:36.233Z,99655.16
2022-08-16T11:03:57.296Z,99637.72
2022-08-16T11:06:27.004Z,99625.25
2022-08-16T11:14:36.763Z,99597.03
2022-08-16T11:17:10.388Z,99609.09
2022-08-16T11:22:46.925Z,99528.22
2022-08-16T11:28:09.127Z,99611.47
2022-08-16T11:30:39.277Z,99593.75
2022-08-16T11:33:07.661Z,99531.47
2022-08-16T11:35:44.036Z,99589.72
2022-08-16T11:38:47.141Z,99648.50
2022-08-16T11:41:03.474Z,99608.50
2022-08-16T11:43:33.410Z,99632.38
2022-08-16T11:46:45.242Z,99556.41
2022-08-16T11:48:57.018Z,99559.78
2022-08-16T11:51:25.429Z,99600.72
2022-08-16T11:53:53.176Z,99644.09
2022-08-16T11:56:39.512Z,99667.44
2022-08-16T11:59:12.841Z,99656.88
2022-08-16T12:01:55.468Z,99596.03
2022-08-16T12:04:28.109Z,99513.75
2022-08-16T12:06:56.178Z,99613.88
2022-08-16T12:09:25.081Z,99640.34
2022-08-16T12:11:57.414Z,99643.22
2022-08-16T12:14:25.149Z,99632.53
2022-08-16T12:16:56.812Z,99668.66
2022-08-16T12:19:33.867Z,99585.19
2022-08-16T12:22:05.548Z,99635.28
2022-08-16T12:24:51.223Z,99572.13
2022-08-16T12:27:23.280Z,99597.84
2022-08-16T12:29:52.188Z,99623.03
2022-08-16T12:32:38.137Z,99643.97
2022-08-16T12:35:12.256Z,99598.28
2022-08-16T12:37:41.917Z,99552.56
2022-08-16T12:40:19.760Z,99531.88
2022-08-16T12:42:59.145Z,99536.16
2022-08-16T12:45:31.041Z,99570.06
2022-08-16T12:48:34.503Z,99603.88
2022-08-16T12:51:04.552Z,99538.22
2022-08-16T12:53:39.943Z,99517.75
2022-08-16T12:56:10.463Z,99567.31
2022-08-16T12:58:48.660Z,99535.19
2022-08-16T13:01:18.855Z,99512.25
2022-08-16T13:03:47.856Z,99500.31
2022-08-16T13:06:19.891Z,99518.44
2022-08-16T13:08:48.591Z,99505.19
2022-08-16T13:11:20.481Z,99509.63
2022-08-16T13:13:53.465Z,99552.63
2022-08-16T13:16:24.903Z,99591.34
2022-08-16T13:18:56.483Z,99527.38
2022-08-16T13:21:24.293Z,99512.31
2022-08-16T13:23:53.471Z,99509.44
2022-08-16T13:26:23.800Z,99502.34
2022-08-16T13:28:52.699Z,99555.91
2022-08-16T13:31:20.616Z,99492.69
2022-08-16T13:33:48.698Z,99552.38
2022-08-16T13:36:45.678Z,99607.31
2022-08-16T13:39:06.593Z,99609.75
2022-08-16T13:41:34.246Z,99613.78
2022-08-16T13:44:04.240Z,99488.56
2022-08-16T13:46:36.910Z,99510.50
2022-08-16T13:49:05.218Z,99553.53
2022-08-16T13:51:34.597Z,99531.50
2022-08-16T13:54:04.429Z,99507.97
2022-08-16T13:56:37.852Z,99472.34
2022-08-16T13:59:19.707Z,99481.50
2022-08-16T14:01:55.760Z,99443.91
2022-08-16T14:04:26.651Z,99428.44
2022-08-16T14:06:57.547Z,99471.69
2022-08-16T14:09:27.305Z,99490.16
2022-08-16T14:11:56.342Z,99489.13
2022-08-16T14:14:29.047Z,99473.44
2022-08-16T14:16:58.685Z,99469.97
2022-08-16T14:19:27.961Z,99481.72
2022-08-16T14:22:14.655Z,99516.16
2022-08-16T14:24:46.614Z,99474.59
2022-08-16T14:27:14.857Z,99454.13
2022-08-16T14:29:43.287Z,99454.50
2022-08-16T14:32:13.233Z,99405.09
2022-08-16T14:35:00.889Z,99385.94
2022-08-16T14:37:31.160Z,99396.91
2022-08-16T14:39:59.980Z,99420.00
2022-08-16T14:42:28.972Z,99371.03
2022-08-16T14:44:57.078Z,99421.78
2022-08-16T14:47:25.255Z,99442.63
2022-08-16T14:50:02.059Z,99433.81
2022-08-16T14:52:54.515Z,99376.22
2022-08-16T14:55:19.536Z,99372.66
2022-08-16T14:57:48.496Z,99406.13
2022-08-16T15:00:20.682Z,99394.16
2022-08-16T15:02:56.883Z,99393.06
2022-08-16T15:05:28.470Z,99385.06
2022-08-16T15:07:58.237Z,99365.63
2022-08-16T15:10:29.203Z,99410.88
2022-08-16T15:12:58.444Z,99352.34
2022-08-16T15:15:29.115Z,99421.88
2022-08-16T15:17:57.590Z,99363.09
2022-08-16T15:20:29.177Z,99377.94
2022-08-16T15:23:01.309Z,99384.28
2022-08-16T15:25:31.819Z,99366.09
2022-08-16T15:28:02.448Z,99347.06
2022-08-16T15:30:57.948Z,99351.97
2022-08-16T15:33:25.382Z,99371.31
2022-08-16T15:35:55.291Z,99393.34
2022-08-16T15:38:54.866Z,99355.97
2022-08-16T15:41:53.883Z,99393.81
2022-08-16T15:44:24.611Z,99393.19
2022-08-16T15:46:56.201Z,99370.56
2022-08-16T15:49:36.897Z,99343.00
2022-08-16T15:52:16.785Z,99356.16
2022-08-16T15:54:53.342Z,99356.75
2022-08-16T15:57:23.992Z,99342.00
2022-08-16T15:59:55.886Z,99331.47
2022-08-16T16:02:29.434Z,99336.38
2022-08-16T16:05:01.485Z,99330.88
2022-08-16T16:07:31.189Z,99337.91
2022-08-16T16:10:01.364Z,99306.66
2022-08-16T16:12:53.449Z,99321.00
2022-08-16T16:15:19.880Z,99329.75
2022-08-16T16:17:52.248Z,99351.97
2022-08-16T16:20:21.047Z,99319.81
2022-08-16T16:22:49.349Z,99338.06
2022-08-16T16:25:20.194Z,99323.59
2022-08-16T16:27:55.418Z,99344.63
2022-08-16T16:30:37.456Z,99382.47
2022-08-16T16:33:15.574Z,99386.31
2022-08-16T16:35:55.369Z,99429.47
2022-08-16T16:38:29.023Z,99407.28
2022-08-16T16:40:59.056Z,99409.06
2022-08-16T16:43:31.700Z,99421.72
2022-08-16T16:46:01.979Z,99404.63
2022-08-16T16:48:34.930Z,99421.34
2022-08-16T16:51:09.541Z,99427.91
2022-08-16T16:53:41.154Z,99426.91
2022-08-16T16:56:19.834Z,99465.44
2022-08-16T16:59:01.099Z,99409.31
2022-08-16T17:01:35.200Z,99409.44
2022-08-16T17:04:27.419Z,99395.34
2022-08-16T17:07:00.918Z,99393.50
2022-08-16T17:09:28.721Z,99401.94
2022-08-16T17:11:59.414Z,99410.84
2022-08-16T17:14:32.824Z,99438.75
2022-08-16T17:17:06.659Z,99434.78
2022-08-16T17:19:40.220Z,99422.75
2022-08-16T17:22:14.387Z,99455.31
2022-08-16T17:24:45.154Z,99541.09
2022-08-16T17:27:17.963Z,99576.19
2022-08-16T17:29:47.478Z,99609.94
2022-08-16T17:32:46.996Z,99611.88
2022-08-16T17:35:14.023Z,99616.94
2022-08-16T17:37:51.509Z,99646.06
2022-08-16T17:40:40.304Z,99729.34
2022-08-16T17:43:13.875Z,99733.72
2022-08-16T17:45:43.156Z,99695.94
2022-08-16T17:48:11.218Z,99809.66
2022-08-16T17:50:39.343Z,99844.34
2022-08-16T17:53:07.845Z,99863.38
2022-08-16T17:55:38.055Z,99825.84
2022-08-16T17:58:09.745Z,99838.00
2022-08-16T18:00:54.162Z,99845.09
2022-08-16T18:04:07.520Z,99790.75
2022-08-16T18:06:16.244Z,99800.09
2022-08-16T18:08:43.992Z,99856.22
2022-08-16T18:11:13.256Z,99860.94
2022-08-16T18:13:43.189Z,99856.22
2022-08-16T18:16:14.688Z,99837.03
2022-08-16T18:18:42.450Z,99924.84
2022-08-16T18:21:27.833Z,99948.72
2022-08-16T18:23:55.460Z,99915.44
2022-08-16T18:26:23.064Z,99958.16
2022-08-16T18:28:51.079Z,100026.47
2022-08-16T18:31:20.082Z,100008.63
2022-08-16T18:33:47.836Z,100036.94
2022-08-16T18:36:20.643Z,100063.78
2022-08-16T18:38:49.311Z,100005.50
2022-08-16T18:41:17.414Z,100005.69
2022-08-16T18:44:23.570Z,100004.28
2022-08-16T18:46:34.085Z,100052.56
2022-08-16T18:49:01.848Z,100126.25
2022-08-16T18:51:30.438Z,100079.28
2022-08-16T18:53:58.119Z,100124.47
2022-08-16T18:56:55.502Z,100122.41
2022-08-16T18:59:14.001Z,100112.63
2022-08-16T19:01:43.144Z,100142.91
2022-08-16T19:04:56.721Z,100183.28
2022-08-16T19:06:58.928Z,100201.75
2022-08-16T19:09:26.574Z,100226.84
2022-08-16T19:11:54.213Z,100208.97
2022-08-16T19:14:27.399Z,100213.72
2022-08-16T19:16:56.588Z,100216.47
2022-08-16T19:19:24.167Z,100231.44
2022-08-16T19:21:51.865Z,100270.81
2022-08-16T19:24:19.477Z,100275.22
2022-08-16T19:26:47.085Z,100246.75
2022-08-16T19:29:14.806Z,100263.72
2022-08-16T19:31:42.500Z,100254.53
2022-08-16T19:34:13.194Z,100252.28
2022-08-16T19:36:41.067Z,100265.16
2022-08-16T19:39:11.932Z,100283.00
2022-08-16T19:41:42.121Z,100352.22
2022-08-16T19:44:11.562Z,100317.41
2022-08-16T19:46:41.647Z,100303.94
2022-08-16T19:49:15.694Z,100301.56
2022-08-16T19:51:44.051Z,100305.28
2022-08-16T19:54:11.614Z,100297.31
2022-08-16T19:56:39.264Z,100289.06
2022-08-16T19:59:39.971Z,100300.63
2022-08-16T20:01:54.602Z,100284.25
2022-08-16T20:04:25.887Z,100291.50
2022-08-16T20:06:54.811Z,100333.38
2022-08-16T20:09:23.121Z,100374.84
2022-08-16T20:11:53.079Z,100328.19
2022-08-16T20:14:25.736Z,100313.25
2022-08-16T20:16:59.003Z,100284.47
2022-08-16T20:19:35.204Z,100281.16
2022-08-16T20:22:29.814Z,100285.56
2022-08-16T20:25:04.316Z,100277.69
2022-08-16T20:27:32.126Z,100254.88
2022-08-16T20:29:59.885Z,100224.63
2022-08-16T20:32:36.052Z,100268.22
2022-08-16T20:35:08.590Z,100278.25
2022-08-16T20:37:37.472Z,100268.38
2022-08-16T20:40:27.979Z,100278.44
2022-08-16T20:43:02.972Z,100272.16
2022-08-16T20:45:30.913Z,100271.63
2022-08-16T20:47:58.582Z,100304.88
2022-08-16T20:50:27.949Z,100293.06
2022-08-16T20:52:55.638Z,100245.13
2022-08-16T20:55:23.938Z,100272.69
2022-08-16T20:57:56.321Z,100352.69
2022-08-16T21:00:24.128Z,100326.13
2022-08-16T21:02:51.897Z,100336.47
2022-08-16T21:05:24.025Z,100232.78
2022-08-16T21:07:54.657Z,100296.88
2022-08-16T21:10:24.399Z,100326.84
2022-08-16T21:12:54.326Z,100334.41
2022-08-16T21:15:22.817Z,100425.78
2022-08-16T21:17:50.679Z,100400.13
2022-08-16T21:20:18.763Z,100374.34
2022-08-16T21:22:55.577Z,100331.97
2022-08-16T21:25:24.564Z,100362.53
2022-08-16T21:28:41.050Z,100335.69
2022-08-16T21:30:41.450Z,100331.13
2022-08-16T21:33:11.822Z,100395.19
2022-08-16T21:35:40.670Z,100333.88
2022-08-16T21:38:29.198Z,100378.16
2022-08-16T21:40:58.138Z,100372.47
2022-08-16T21:43:27.568Z,100381.06
2022-08-16T21:45:56.028Z,100397.41
2022-08-16T21:48:33.926Z,100451.56
2022-08-16T21:51:03.394Z,100387.72
2022-08-16T21:53:32.481Z,100362.09
2022-08-16T21:56:00.939Z,100400.34
2022-08-16T21:58:28.778Z,100350.13
2022-08-16T22:00:56.598Z,100340.78
2022-08-16T22:03:24.620Z,100317.00
2022-08-16T22:06:13.339Z,100346.09
2022-08-16T22:08:46.701Z,100406.44
2022-08-16T22:11:19.259Z,100418.31
2022-08-16T22:13:51.280Z,100499.06
2022-08-16T22:16:25.324Z,100473.50
2022-08-16T22:18:52.998Z,100426.81
2022-08-16T22:21:20.821Z,100364.06
2022-08-16T22:23:55.194Z,100389.88
2022-08-16T22:26:30.142Z,100398.97
2022-08-16T22:29:00.008Z,100407.22
2022-08-16T22:31:27.638Z,100475.59
2022-08-16T22:33:55.944Z,100411.50
2022-08-16T22:36:24.062Z,100428.31
2022-08-16T22:38:59.040Z,100467.16
2022-08-16T22:41:27.865Z,100488.88
2022-08-16T22:43:55.643Z,100511.81
2022-08-16T22:46:23.346Z,100533.94
2022-08-16T22:48:51.187Z,100573.75
2022-08-16T22:51:19.182Z,100521.81
2022-08-16T22:53:46.855Z,100542.75
2022-08-16T22:56:17.455Z,100563.56
2022-08-16T22:58:46.004Z,100586.03
2022-08-16T23:01:15.534Z,100591.97
2022-08-16T23:03:43.769Z,100608.69
2022-08-16T23:06:13.007Z,100568.69
2022-08-16T23:08:42.106Z,100469.84
2022-08-16T23:11:12.497Z,100409.22
2022-08-16T23:13:52.860Z,100440.31
2022-08-16T23:16:25.077Z,100442.88
2022-08-16T23:19:02.021Z,100422.38
2022-08-16T23:21:30.080Z,100453.34
2022-08-16T23:23:58.370Z,100482.56
2022-08-16T23:26:45.298Z,100520.22
2022-08-16T23:29:24.398Z,100576.03
2022-08-16T23:31:55.827Z,100648.44
2022-08-16T23:34:23.990Z,100469.19
2022-08-16T23:36:51.608Z,100501.53
2022-08-16T23:39:19.512Z,100550.88
2022-08-16T23:41:53.642Z,100613.50
2022-08-16T23:44:42.136Z,100629.84
2022-08-16T23:47:14.215Z,100641.78
2022-08-16T23:49:56.030Z,100689.66
2022-08-16T23:52:40.495Z,100672.34
2022-08-16T23:55:17.796Z,100575.94
2022-08-16T23:57:46.020Z,100478.47
